Time;durP1;ratioP1;P1;durP2;ratioP2;P2;SDS_P1;SDS_P2;PMS_P1;PMS_P2;Temp;Humidity;BMP_temperature;BMP_pressure;BME280_temperature;BME280_humidity;BME280_pressure;Samples;Min_cycle;Max_cycle;Signal;HPM_P1;HPM_P2
2023/08/26 00:00:07;;;;;;;8.20;5.73;;;;;;;;;;4965059;28;20952;-88
2023/08/26 00:02:34;;;;;;;6.90;6.20;;;;;;;;;;4992217;28;20914;-89
2023/08/26 00:05:00;;;;;;;6.60;5.93;;;;;;;;;;4970081;28;20425;-88
2023/08/26 00:07:27;;;;;;;7.00;6.30;;;;;;;;;;4978362;28;20449;-88
2023/08/26 00:09:53;;;;;;;7.03;6.33;;;;;;;;;;4964535;28;21020;-89
2023/08/26 00:12:19;;;;;;;9.00;6.63;;;;;;;;;;4964662;28;20522;-89
2023/08/26 00:14:46;;;;;;;6.80;5.77;;;;;;;;;;4963470;28;20517;-89
2023/08/26 00:17:12;;;;;;;9.70;6.50;;;;;;;;;;4964055;28;20426;-89
2023/08/26 00:19:38;;;;;;;7.43;6.67;;;;;;;;;;4976260;28;20506;-88
2023/08/26 00:22:05;;;;;;;7.97;6.60;;;;;;;;;;4979958;28;20446;-88
2023/08/26 00:24:32;;;;;;;9.73;7.10;;;;;;;;;;4987891;28;20429;-88
2023/08/26 00:26:58;;;;;;;7.63;6.07;;;;;;;;;;4965474;28;20430;-88
2023/08/26 00:29:25;;;;;;;8.80;7.10;;;;;;;;;;4967821;28;20436;-89
2023/08/26 00:31:50;;;;;;;12.53;6.43;;;;;;;;;;4969741;28;20434;-89
2023/08/26 00:34:20;;;;;;;7.57;6.70;;;;;;;;;;4952432;28;20441;-88
2023/08/26 00:36:46;;;;;;;8.77;7.03;;;;;;;;;;4977949;28;20522;-89
2023/08/26 00:39:12;;;;;;;8.37;6.10;;;;;;;;;;4960509;28;20568;-88
2023/08/26 00:41:38;;;;;;;6.67;5.77;;;;;;;;;;4946030;28;21039;-89
2023/08/26 00:44:04;;;;;;;6.87;6.17;;;;;;;;;;4946403;28;20430;-88
2023/08/26 00:46:30;;;;;;;8.33;6.00;;;;;;;;;;5008138;28;20450;-89
2023/08/26 00:48:56;;;;;;;7.87;5.80;;;;;;;;;;5004821;28;20440;-89
2023/08/26 00:51:22;;;;;;;10.40;6.93;;;;;;;;;;5005339;28;20437;-89
2023/08/26 00:53:48;;;;;;;7.67;6.00;;;;;;;;;;4979085;28;20437;-89
2023/08/26 00:56:14;;;;;;;8.07;5.93;;;;;;;;;;4964499;28;20491;-88
2023/08/26 00:58:40;;;;;;;6.03;5.30;;;;;;;;;;4964218;28;20447;-88
2023/08/26 01:01:06;;;;;;;5.37;4.77;;;;;;;;;;4966152;28;20456;-89
2023/08/26 01:03:33;;;;;;;7.03;5.00;;;;;;;;;;4967735;28;20421;-89
2023/08/26 01:06:00;;;;;;;7.17;4.83;;;;;;;;;;5005502;28;20514;-89
2023/08/26 01:08:26;;;;;;;7.83;4.83;;;;;;;;;;4981526;28;20429;-88
2023/08/26 01:11:10;;;;;;;5.67;5.03;;;;;;;;;;4969029;28;20515;-89
2023/08/26 01:13:55;;;;;;;7.73;5.50;;;;;;;;;;4999113;28;20439;-89
2023/08/26 01:16:21;;;;;;;6.57;5.50;;;;;;;;;;4998670;28;20428;-90
2023/08/26 01:18:47;;;;;;;5.90;4.80;;;;;;;;;;4963278;28;20947;-90
2023/08/26 01:21:13;;;;;;;5.33;4.50;;;;;;;;;;4965725;28;20485;-90
2023/08/26 01:23:40;;;;;;;8.17;5.30;;;;;;;;;;4964886;28;20428;-90
2023/08/26 01:26:06;;;;;;;20.00;5.70;;;;;;;;;;4966758;28;20429;-90
2023/08/26 01:28:32;;;;;;;9.03;5.23;;;;;;;;;;5000828;28;20491;-89
2023/08/26 01:30:59;;;;;;;9.67;6.20;;;;;;;;;;4980629;28;20453;-89
2023/08/26 01:33:25;;;;;;;7.07;5.83;;;;;;;;;;5000309;28;20425;-90
2023/08/26 01:35:53;;;;;;;6.67;5.50;;;;;;;;;;4968843;28;20435;-90
2023/08/26 01:38:19;;;;;;;11.03;5.70;;;;;;;;;;4994539;28;20433;-89
2023/08/26 01:40:48;;;;;;;6.10;5.20;;;;;;;;;;5007354;28;20460;-89
2023/08/26 01:43:14;;;;;;;5.63;4.47;;;;;;;;;;5003214;28;20475;-90
2023/08/26 01:45:39;;;;;;;6.30;4.50;;;;;;;;;;4969794;28;20397;-90
2023/08/26 01:48:06;;;;;;;8.50;6.10;;;;;;;;;;4964912;28;20413;-90
2023/08/26 01:50:32;;;;;;;7.60;5.03;;;;;;;;;;4968728;28;20455;-91
2023/08/26 01:52:58;;;;;;;5.93;4.50;;;;;;;;;;4961754;28;20449;-89
2023/08/26 01:55:24;;;;;;;7.57;4.90;;;;;;;;;;4971029;28;20462;-90
2023/08/26 01:57:50;;;;;;;4.93;4.43;;;;;;;;;;4964915;28;20445;-91
2023/08/26 02:00:16;;;;;;;9.13;5.30;;;;;;;;;;4967511;28;20519;-90
2023/08/26 02:02:42;;;;;;;6.63;4.47;;;;;;;;;;4963268;28;20429;-90
2023/08/26 02:05:08;;;;;;;8.47;4.50;;;;;;;;;;4977877;28;20433;-90
2023/08/26 02:07:34;;;;;;;4.50;3.80;;;;;;;;;;4972831;28;20501;-90
2023/08/26 02:10:00;;;;;;;6.40;4.20;;;;;;;;;;4949045;28;20450;-90
2023/08/26 02:12:26;;;;;;;5.03;4.00;;;;;;;;;;4967338;28;20437;-90
2023/08/26 02:14:52;;;;;;;6.53;4.20;;;;;;;;;;4965820;28;20428;-89
2023/08/26 02:17:18;;;;;;;5.13;3.93;;;;;;;;;;4964660;28;20429;-90
2023/08/26 02:19:44;;;;;;;10.13;5.00;;;;;;;;;;4977914;28;20465;-90
2023/08/26 02:22:10;;;;;;;5.33;4.13;;;;;;;;;;4974886;28;20433;-90
2023/08/26 02:24:36;;;;;;;6.87;5.00;;;;;;;;;;4965364;28;20479;-89
2023/08/26 02:27:02;;;;;;;7.43;4.70;;;;;;;;;;4959357;28;20449;-89
2023/08/26 02:29:30;;;;;;;5.77;4.63;;;;;;;;;;4971790;28;20429;-90
2023/08/26 02:31:56;;;;;;;5.93;4.60;;;;;;;;;;4972879;28;20440;-89
2023/08/26 02:34:22;;;;;;;6.10;4.60;;;;;;;;;;4980388;28;20559;-90
2023/08/26 02:36:48;;;;;;;5.60;3.87;;;;;;;;;;4968703;28;20440;-90
2023/08/26 02:39:14;;;;;;;4.23;3.83;;;;;;;;;;4963518;28;20428;-89
2023/08/26 02:41:40;;;;;;;4.80;4.20;;;;;;;;;;4999657;28;20417;-90
2023/08/26 02:44:06;;;;;;;7.27;4.93;;;;;;;;;;4983198;28;20476;-89
2023/08/26 02:46:32;;;;;;;6.83;3.93;;;;;;;;;;4999704;28;20548;-89
2023/08/26 02:48:58;;;;;;;5.97;4.27;;;;;;;;;;4968924;28;20437;-90
2023/08/26 02:51:24;;;;;;;4.87;4.00;;;;;;;;;;4958587;28;20924;-89
2023/08/26 02:53:50;;;;;;;4.20;3.80;;;;;;;;;;4962916;28;20433;-89
2023/08/26 02:56:16;;;;;;;9.03;4.40;;;;;;;;;;4993247;28;20827;-90
2023/08/26 02:58:42;;;;;;;8.00;4.10;;;;;;;;;;4992978;28;20443;-89
2023/08/26 03:01:08;;;;;;;7.80;4.27;;;;;;;;;;4990896;28;20471;-89
2023/08/26 03:03:34;;;;;;;6.30;4.43;;;;;;;;;;4971021;28;20812;-89
2023/08/26 03:06:00;;;;;;;7.20;4.60;;;;;;;;;;4963258;28;20433;-89
2023/08/26 03:08:26;;;;;;;5.10;4.40;;;;;;;;;;4959331;28;20490;-89
2023/08/26 03:11:00;;;;;;;4.83;4.00;;;;;;;;;;4959930;28;20473;-89
2023/08/26 03:13:26;;;;;;;7.20;4.40;;;;;;;;;;4963824;28;20433;-89
2023/08/26 03:15:51;;;;;;;7.87;4.63;;;;;;;;;;4993299;28;20432;-88
2023/08/26 03:18:17;;;;;;;8.60;4.40;;;;;;;;;;5002629;28;20516;-89
2023/08/26 03:20:43;;;;;;;5.50;4.13;;;;;;;;;;5017540;28;20468;-89
2023/08/26 03:23:09;;;;;;;4.73;4.00;;;;;;;;;;4979766;28;20511;-89
2023/08/26 03:25:39;;;;;;;6.23;5.20;;;;;;;;;;4964010;28;20426;-89
2023/08/26 03:28:08;;;;;;;6.07;5.03;;;;;;;;;;4996174;28;20448;-89
2023/08/26 03:30:34;;;;;;;12.40;5.77;;;;;;;;;;5006428;28;20564;-89
2023/08/26 03:33:00;;;;;;;6.53;4.83;;;;;;;;;;4997389;28;20923;-88
2023/08/26 03:35:26;;;;;;;10.23;5.47;;;;;;;;;;4993904;28;20428;-89
2023/08/26 03:37:52;;;;;;;7.40;4.80;;;;;;;;;;4996596;28;20432;-89
2023/08/26 03:40:22;;;;;;;8.83;5.00;;;;;;;;;;5003109;28;20503;-89
2023/08/26 03:42:48;;;;;;;6.27;5.33;;;;;;;;;;5007310;28;20484;-89
2023/08/26 03:45:16;;;;;;;10.40;4.93;;;;;;;;;;4984729;28;20441;-89
2023/08/26 03:47:42;;;;;;;10.00;5.70;;;;;;;;;;4970191;28;20429;-89
2023/08/26 03:50:08;;;;;;;7.40;6.07;;;;;;;;;;4970147;28;20495;-89
2023/08/26 03:52:34;;;;;;;7.07;5.53;;;;;;;;;;5008384;28;20432;-89
2023/08/26 03:55:00;;;;;;;7.40;5.23;;;;;;;;;;4981460;28;20441;-89
2023/08/26 03:57:26;;;;;;;6.00;5.00;;;;;;;;;;5001906;28;20506;-89
2023/08/26 03:59:52;;;;;;;8.10;5.37;;;;;;;;;;4996976;28;20437;-89
2023/08/26 04:02:18;;;;;;;8.70;5.53;;;;;;;;;;5001852;28;20433;-89
2023/08/26 04:04:44;;;;;;;8.23;5.27;;;;;;;;;;5003161;28;20899;-88
2023/08/26 04:07:10;;;;;;;6.87;5.23;;;;;;;;;;4996796;28;20440;-89
2023/08/26 04:09:36;;;;;;;6.90;5.83;;;;;;;;;;4980120;28;20415;-89
2023/08/26 04:12:02;;;;;;;11.50;6.60;;;;;;;;;;4988590;28;20455;-89
2023/08/26 04:14:28;;;;;;;9.03;6.27;;;;;;;;;;4981635;28;20455;-89
2023/08/26 04:16:54;;;;;;;6.67;6.00;;;;;;;;;;4987283;28;20475;-90
2023/08/26 04:19:20;;;;;;;8.23;5.63;;;;;;;;;;5007583;28;20462;-91
2023/08/26 04:21:46;;;;;;;7.20;5.50;;;;;;;;;;5015174;28;20440;-91
2023/08/26 04:24:12;;;;;;;6.50;5.50;;;;;;;;;;5003980;28;20432;-91
2023/08/26 04:26:38;;;;;;;7.73;5.13;;;;;;;;;;4971720;28;20453;-91
2023/08/26 04:29:04;;;;;;;7.57;6.10;;;;;;;;;;4967234;28;20464;-91
2023/08/26 04:31:31;;;;;;;7.17;5.67;;;;;;;;;;4996743;28;20430;-91
2023/08/26 04:33:57;;;;;;;7.23;4.97;;;;;;;;;;4995003;28;20434;-91
2023/08/26 04:36:23;;;;;;;6.20;5.60;;;;;;;;;;4984240;28;20517;-91
2023/08/26 04:38:49;;;;;;;8.70;5.87;;;;;;;;;;4967434;28;20915;-91
2023/08/26 04:41:15;;;;;;;9.17;5.97;;;;;;;;;;4972665;28;20547;-91
2023/08/26 04:43:41;;;;;;;7.97;6.40;;;;;;;;;;5006170;28;20484;-91
2023/08/26 04:46:07;;;;;;;7.83;6.33;;;;;;;;;;4981275;28;20433;-91
2023/08/26 04:48:33;;;;;;;9.83;6.30;;;;;;;;;;4968633;28;20445;-91
2023/08/26 04:50:59;;;;;;;9.53;7.13;;;;;;;;;;4967420;28;20449;-91
2023/08/26 04:53:25;;;;;;;7.10;6.23;;;;;;;;;;4994740;28;20433;-91
2023/08/26 04:55:51;;;;;;;8.17;6.57;;;;;;;;;;4967905;28;20437;-92
2023/08/26 04:58:17;;;;;;;7.70;6.13;;;;;;;;;;5003604;28;20422;-91
2023/08/26 05:00:44;;;;;;;9.17;5.70;;;;;;;;;;5013428;28;20452;-91
2023/08/26 05:03:10;;;;;;;8.67;5.57;;;;;;;;;;4991326;28;20428;-91
2023/08/26 05:05:36;;;;;;;7.53;6.60;;;;;;;;;;4965615;28;20437;-90
2023/08/26 05:08:02;;;;;;;10.43;5.70;;;;;;;;;;4977607;28;20438;-90
2023/08/26 05:10:28;;;;;;;6.67;5.33;;;;;;;;;;4994013;28;20452;-91
2023/08/26 05:12:54;;;;;;;9.67;5.90;;;;;;;;;;4966456;28;20795;-91
2023/08/26 05:15:20;;;;;;;8.93;5.43;;;;;;;;;;4968050;28;20433;-91
2023/08/26 05:17:46;;;;;;;8.07;5.53;;;;;;;;;;4963714;28;20435;-91
2023/08/26 05:20:12;;;;;;;7.47;5.30;;;;;;;;;;4970948;28;20461;-90
2023/08/26 05:22:38;;;;;;;6.73;6.03;;;;;;;;;;4968952;28;20496;-90
2023/08/26 05:25:05;;;;;;;6.10;5.07;;;;;;;;;;4965706;28;20948;-90
2023/08/26 05:27:31;;;;;;;6.43;4.80;;;;;;;;;;4971756;28;20441;-90
2023/08/26 05:29:57;;;;;;;8.20;5.57;;;;;;;;;;4979775;28;20449;-91
2023/08/26 05:32:25;;;;;;;7.27;5.43;;;;;;;;;;4997858;28;20483;-91
2023/08/26 05:34:51;;;;;;;9.20;5.83;;;;;;;;;;4983784;28;20437;-91
2023/08/26 05:37:17;;;;;;;7.00;5.80;;;;;;;;;;4967054;28;20437;-91
2023/08/26 05:39:43;;;;;;;8.63;5.50;;;;;;;;;;4968510;28;20536;-91
2023/08/26 05:42:09;;;;;;;7.80;6.13;;;;;;;;;;4983089;28;20437;-91
2023/08/26 05:44:35;;;;;;;12.00;5.40;;;;;;;;;;4983056;28;20417;-91
2023/08/26 05:47:01;;;;;;;10.17;5.83;;;;;;;;;;4968049;28;20433;-91
2023/08/26 05:49:27;;;;;;;7.37;5.63;;;;;;;;;;5004868;28;20520;-90
2023/08/26 05:51:53;;;;;;;6.90;5.27;;;;;;;;;;4988213;28;20409;-90
2023/08/26 05:54:19;;;;;;;8.50;5.80;;;;;;;;;;5007260;28;20437;-91
2023/08/26 05:56:45;;;;;;;9.13;6.40;;;;;;;;;;4966469;28;20453;-91
2023/08/26 05:59:11;;;;;;;9.80;6.13;;;;;;;;;;4960573;28;20441;-90
2023/08/26 06:01:37;;;;;;;7.80;6.63;;;;;;;;;;4947054;28;20928;-91
2023/08/26 06:04:03;;;;;;;8.70;6.43;;;;;;;;;;4944614;28;21031;-91
2023/08/26 06:06:29;;;;;;;7.77;6.40;;;;;;;;;;4945681;28;20457;-91
2023/08/26 06:08:56;;;;;;;9.33;6.20;;;;;;;;;;4950978;28;20441;-91
2023/08/26 06:11:23;;;;;;;8.17;6.73;;;;;;;;;;4948828;28;20949;-91
2023/08/26 06:13:49;;;;;;;7.83;6.83;;;;;;;;;;4943459;28;20561;-91
2023/08/26 06:16:19;;;;;;;9.90;6.30;;;;;;;;;;4943440;28;21258;-92
2023/08/26 06:18:45;;;;;;;6.50;5.77;;;;;;;;;;4951181;28;20422;-91
2023/08/26 06:21:11;;;;;;;8.33;6.03;;;;;;;;;;4945482;28;20469;-92
2023/08/26 06:23:37;;;;;;;7.63;6.70;;;;;;;;;;4946570;28;20477;-92
2023/08/26 06:26:04;;;;;;;8.10;6.50;;;;;;;;;;4947327;28;20481;-92
2023/08/26 06:28:30;;;;;;;10.00;6.50;;;;;;;;;;4946643;28;20512;-93
2023/08/26 06:30:58;;;;;;;7.53;5.73;;;;;;;;;;4963311;28;20440;-92
2023/08/26 06:33:24;;;;;;;6.60;5.60;;;;;;;;;;4968873;28;20459;-91
2023/08/26 06:35:50;;;;;;;7.27;4.80;;;;;;;;;;4998589;28;20448;-91
2023/08/26 06:38:16;;;;;;;12.13;5.07;;;;;;;;;;4965591;28;20472;-90
2023/08/26 06:40:42;;;;;;;7.50;5.30;;;;;;;;;;4959730;28;20892;-89
2023/08/26 06:43:08;;;;;;;7.57;4.77;;;;;;;;;;4988072;28;20459;-91
2023/08/26 06:45:34;;;;;;;8.60;4.70;;;;;;;;;;5001115;28;20489;-90
2023/08/26 06:48:00;;;;;;;5.33;4.80;;;;;;;;;;4970218;28;21005;-91
2023/08/26 06:50:26;;;;;;;4.30;3.90;;;;;;;;;;4980679;28;20471;-90
2023/08/26 06:52:52;;;;;;;7.47;4.00;;;;;;;;;;4996234;28;20436;-89
2023/08/26 06:55:18;;;;;;;7.53;4.50;;;;;;;;;;4963143;28;20426;-90
2023/08/26 06:57:44;;;;;;;6.20;4.80;;;;;;;;;;4969612;28;20432;-90
2023/08/26 07:00:11;;;;;;;6.93;4.90;;;;;;;;;;4984274;28;20578;-90
2023/08/26 07:02:37;;;;;;;12.23;4.77;;;;;;;;;;4968288;28;20472;-90
2023/08/26 07:05:04;;;;;;;10.30;4.43;;;;;;;;;;4970644;28;20444;-90
2023/08/26 07:07:30;;;;;;;9.67;5.10;;;;;;;;;;4969576;28;20436;-90
2023/08/26 07:09:56;;;;;;;8.40;5.97;;;;;;;;;;4979254;28;20440;-90
2023/08/26 07:12:22;;;;;;;5.47;4.77;;;;;;;;;;4975110;28;20958;-90
2023/08/26 07:14:48;;;;;;;9.60;4.43;;;;;;;;;;4968275;28;20522;-90
2023/08/26 07:17:17;;;;;;;9.20;5.60;;;;;;;;;;4973591;28;20449;-91
2023/08/26 07:19:44;;;;;;;5.40;4.83;;;;;;;;;;5000362;28;20503;-90
2023/08/26 07:22:10;;;;;;;7.33;5.00;;;;;;;;;;4995819;28;20495;-89
2023/08/26 07:24:37;;;;;;;6.67;6.07;;;;;;;;;;5001438;28;20426;-90
2023/08/26 07:27:03;;;;;;;7.83;5.43;;;;;;;;;;4965064;28;20434;-90
2023/08/26 07:29:31;;;;;;;6.07;5.03;;;;;;;;;;4971142;28;20836;-89
2023/08/26 07:31:57;;;;;;;6.30;4.97;;;;;;;;;;4986417;28;20417;-90
2023/08/26 07:34:23;;;;;;;8.07;4.63;;;;;;;;;;4969307;28;20495;-91
2023/08/26 07:36:50;;;;;;;5.80;5.17;;;;;;;;;;4968623;28;20495;-90
2023/08/26 07:39:16;;;;;;;7.17;4.87;;;;;;;;;;4970202;28;20425;-90
2023/08/26 07:41:42;;;;;;;5.67;4.23;;;;;;;;;;4971158;28;20552;-89
2023/08/26 07:44:08;;;;;;;7.33;5.07;;;;;;;;;;4967810;28;20437;-90
2023/08/26 07:46:34;;;;;;;7.30;5.17;;;;;;;;;;4985120;28;20460;-90
2023/08/26 07:49:00;;;;;;;8.47;4.90;;;;;;;;;;4967658;28;20413;-89
2023/08/26 07:51:26;;;;;;;7.80;4.40;;;;;;;;;;4986800;28;20404;-90
2023/08/26 07:53:52;;;;;;;7.73;4.70;;;;;;;;;;4968547;28;20447;-91
2023/08/26 07:56:18;;;;;;;5.17;4.53;;;;;;;;;;4964820;28;20457;-90
2023/08/26 07:58:44;;;;;;;8.20;4.90;;;;;;;;;;4966136;28;20445;-91
2023/08/26 08:01:10;;;;;;;6.47;5.53;;;;;;;;;;4964218;28;20457;-90
2023/08/26 08:03:36;;;;;;;8.07;4.87;;;;;;;;;;4979183;28;20432;-90
2023/08/26 08:06:02;;;;;;;7.20;5.17;;;;;;;;;;4970999;28;20441;-90
2023/08/26 08:08:28;;;;;;;11.67;5.50;;;;;;;;;;4965297;28;20425;-90
2023/08/26 08:10:54;;;;;;;4.80;4.23;;;;;;;;;;4980021;28;20823;-90
2023/08/26 08:13:20;;;;;;;6.20;4.93;;;;;;;;;;4964487;28;20440;-90
2023/08/26 08:15:46;;;;;;;6.23;5.33;;;;;;;;;;5000085;28;21010;-90
2023/08/26 08:18:12;;;;;;;8.53;5.00;;;;;;;;;;4961145;28;20460;-89
2023/08/26 08:20:38;;;;;;;6.87;4.83;;;;;;;;;;4997892;28;20453;-91
2023/08/26 08:23:05;;;;;;;11.33;6.33;;;;;;;;;;4967753;28;20539;-90
2023/08/26 08:25:32;;;;;;;7.20;5.87;;;;;;;;;;4967226;28;20425;-90
2023/08/26 08:27:58;;;;;;;8.87;4.77;;;;;;;;;;5001461;28;20429;-90
2023/08/26 08:30:24;;;;;;;4.90;4.03;;;;;;;;;;5001965;28;20432;-90
2023/08/26 08:32:50;;;;;;;7.40;4.97;;;;;;;;;;4964215;28;20520;-90
2023/08/26 08:35:16;;;;;;;7.20;5.20;;;;;;;;;;5012510;28;20433;-90
2023/08/26 08:37:42;;;;;;;7.00;5.00;;;;;;;;;;4964922;28;20433;-90
2023/08/26 08:40:08;;;;;;;8.63;5.13;;;;;;;;;;4965850;28;20472;-90
2023/08/26 08:42:34;;;;;;;6.07;4.43;;;;;;;;;;4965622;28;20469;-90
2023/08/26 08:45:00;;;;;;;11.33;4.77;;;;;;;;;;4965884;28;20418;-90
2023/08/26 08:47:26;;;;;;;6.60;4.60;;;;;;;;;;5005141;28;21022;-90
2023/08/26 08:49:52;;;;;;;7.37;5.13;;;;;;;;;;4964162;28;20496;-90
2023/08/26 08:52:18;;;;;;;11.10;6.03;;;;;;;;;;5007360;28;20413;-91
2023/08/26 08:54:44;;;;;;;10.67;5.57;;;;;;;;;;4964835;28;20577;-91
2023/08/26 08:57:12;;;;;;;6.90;4.90;;;;;;;;;;4981773;28;20465;-91
2023/08/26 08:59:38;;;;;;;7.47;5.87;;;;;;;;;;4964854;28;20441;-90
2023/08/26 09:02:05;;;;;;;7.70;4.50;;;;;;;;;;4966099;28;20429;-91
2023/08/26 09:04:31;;;;;;;6.27;4.30;;;;;;;;;;4965738;28;20440;-91
2023/08/26 09:06:57;;;;;;;5.43;4.03;;;;;;;;;;4966716;28;20457;-91
2023/08/26 09:09:24;;;;;;;6.40;4.50;;;;;;;;;;4939025;29;20536;-91
2023/08/26 09:11:50;;;;;;;7.30;4.87;;;;;;;;;;4919333;29;20462;-91
2023/08/26 09:14:16;;;;;;;7.17;4.90;;;;;;;;;;4923729;29;20448;-91
2023/08/26 09:16:43;;;;;;;5.60;5.00;;;;;;;;;;4928538;29;20540;-92
2023/08/26 09:19:09;;;;;;;6.73;5.20;;;;;;;;;;4943853;29;20450;-91
2023/08/26 09:21:40;;;;;;;6.93;5.33;;;;;;;;;;4944711;29;20498;-90
2023/08/26 09:24:06;;;;;;;6.00;4.23;;;;;;;;;;4930521;29;20487;-91
2023/08/26 09:26:32;;;;;;;8.30;4.10;;;;;;;;;;4943404;29;20451;-90
2023/08/26 09:28:58;;;;;;;9.30;5.40;;;;;;;;;;4930477;29;20447;-90
2023/08/26 09:31:24;;;;;;;6.63;4.67;;;;;;;;;;4937588;29;20494;-91
2023/08/26 09:34:03;;;;;;;8.43;5.10;;;;;;;;;;4924865;29;20443;-91
2023/08/26 09:36:38;;;;;;;5.10;4.60;;;;;;;;;;4946997;29;20435;-90
2023/08/26 09:39:05;;;;;;;6.13;4.90;;;;;;;;;;4940583;29;20587;-91
2023/08/26 09:41:31;;;;;;;7.40;5.33;;;;;;;;;;4974429;28;20514;-91
2023/08/26 09:43:57;;;;;;;5.77;5.20;;;;;;;;;;4969245;28;20451;-92
2023/08/26 09:46:23;;;;;;;6.47;5.63;;;;;;;;;;4980825;28;20408;-90
2023/08/26 09:48:49;;;;;;;7.80;5.93;;;;;;;;;;4970793;28;20436;-91
2023/08/26 09:51:33;;;;;;;8.20;5.80;;;;;;;;;;4967492;28;20472;-91
2023/08/26 09:53:59;;;;;;;6.37;5.77;;;;;;;;;;5004773;28;20544;-91
2023/08/26 09:56:26;;;;;;;6.20;5.30;;;;;;;;;;4973462;28;20441;-91
2023/08/26 09:58:52;;;;;;;9.13;6.17;;;;;;;;;;4971599;28;20426;-90
2023/08/26 10:01:25;;;;;;;8.23;6.00;;;;;;;;;;4961047;28;20454;-90
2023/08/26 10:03:53;;;;;;;13.03;6.60;;;;;;;;;;4992175;28;20429;-92
2023/08/26 10:06:23;;;;;;;7.67;6.07;;;;;;;;;;4971316;28;20469;-91
2023/08/26 10:08:53;;;;;;;8.90;5.47;;;;;;;;;;4983420;28;20447;-91
2023/08/26 10:11:21;;;;;;;6.30;5.70;;;;;;;;;;5008834;28;20433;-90
2023/08/26 10:13:47;;;;;;;6.50;4.87;;;;;;;;;;4968098;28;20425;-91
2023/08/26 10:16:14;;;;;;;7.80;5.20;;;;;;;;;;4954502;28;20558;-90
2023/08/26 10:18:42;;;;;;;6.77;4.77;;;;;;;;;;4949359;28;20426;-90
2023/08/26 10:21:08;;;;;;;7.80;5.63;;;;;;;;;;4947226;28;20474;-90
2023/08/26 10:23:37;;;;;;;5.37;4.87;;;;;;;;;;4960290;28;20438;-90
2023/08/26 10:26:05;;;;;;;5.50;4.57;;;;;;;;;;4948138;28;20430;-90
2023/08/26 10:28:31;;;;;;;8.50;5.47;;;;;;;;;;4948093;28;20430;-90
2023/08/26 10:30:58;;;;;;;8.93;5.10;;;;;;;;;;4950642;28;20438;-91
2023/08/26 10:33:24;;;;;;;5.60;4.33;;;;;;;;;;4950364;28;20434;-92
2023/08/26 10:35:59;;;;;;;6.20;5.30;;;;;;;;;;4939297;28;20494;-91
2023/08/26 10:38:25;;;;;;;7.27;6.03;;;;;;;;;;4956900;28;20807;-92
2023/08/26 10:41:06;;;;;;;7.37;5.07;;;;;;;;;;4962107;28;20477;-91
2023/08/26 10:43:33;;;;;;;11.50;6.17;;;;;;;;;;4948939;28;20449;-90
2023/08/26 10:45:59;;;;;;;7.63;5.40;;;;;;;;;;4995298;28;20437;-91
2023/08/26 10:48:25;;;;;;;7.30;5.53;;;;;;;;;;4991438;28;20520;-90
2023/08/26 10:51:01;;;;;;;7.10;5.87;;;;;;;;;;4987089;28;20428;-90
2023/08/26 10:53:27;;;;;;;5.97;5.20;;;;;;;;;;4964184;28;20456;-91
2023/08/26 10:55:55;;;;;;;6.47;5.17;;;;;;;;;;4965465;28;20408;-93
2023/08/26 10:58:21;;;;;;;5.10;4.50;;;;;;;;;;5004684;28;20436;-91
2023/08/26 11:00:48;;;;;;;5.87;5.20;;;;;;;;;;4982685;28;20458;-89
2023/08/26 11:03:15;;;;;;;9.10;5.10;;;;;;;;;;5005183;28;20520;-90
2023/08/26 11:05:46;;;;;;;6.70;5.47;;;;;;;;;;4967813;28;20459;-90
2023/08/26 11:08:12;;;;;;;9.20;5.20;;;;;;;;;;4996670;28;20429;-90
2023/08/26 11:10:41;;;;;;;6.97;5.40;;;;;;;;;;4965113;28;20446;-90
2023/08/26 11:13:10;;;;;;;8.70;5.70;;;;;;;;;;4970666;28;20440;-89
2023/08/26 11:15:43;;;;;;;8.03;4.43;;;;;;;;;;4972040;28;20432;-89
2023/08/26 11:18:09;;;;;;;7.57;5.60;;;;;;;;;;4964618;28;20462;-89
2023/08/26 11:20:36;;;;;;;6.43;5.30;;;;;;;;;;4978816;28;20460;-91
2023/08/26 11:23:03;;;;;;;11.63;5.20;;;;;;;;;;4968338;28;20449;-91
2023/08/26 11:25:29;;;;;;;8.00;5.83;;;;;;;;;;4967483;28;20432;-91
2023/08/26 11:28:01;;;;;;;6.90;5.00;;;;;;;;;;4986234;28;20440;-90
2023/08/26 11:30:28;;;;;;;7.97;5.90;;;;;;;;;;4965659;28;20808;-89
2023/08/26 11:32:59;;;;;;;5.63;4.23;;;;;;;;;;4971001;28;20451;-90
2023/08/26 11:35:30;;;;;;;7.27;5.70;;;;;;;;;;4981804;28;20433;-91
2023/08/26 11:37:56;;;;;;;9.53;4.53;;;;;;;;;;5000585;28;20452;-92
2023/08/26 11:40:22;;;;;;;7.73;5.43;;;;;;;;;;5000085;28;20522;-90
2023/08/26 11:42:48;;;;;;;6.70;5.90;;;;;;;;;;4969132;28;20460;-91
2023/08/26 11:45:14;;;;;;;7.37;6.20;;;;;;;;;;4969463;28;20439;-92
2023/08/26 11:47:43;;;;;;;8.57;6.43;;;;;;;;;;4969111;28;20999;-92
2023/08/26 11:50:10;;;;;;;8.10;6.60;;;;;;;;;;4991164;28;20448;-91
2023/08/26 11:52:38;;;;;;;6.57;5.77;;;;;;;;;;4999037;28;20460;-91
2023/08/26 11:55:13;;;;;;;7.50;6.80;;;;;;;;;;4982640;28;20441;-91
2023/08/26 11:57:40;;;;;;;7.70;6.90;;;;;;;;;;4999816;28;20803;-91
2023/08/26 12:00:07;;;;;;;7.73;6.93;;;;;;;;;;4980777;28;20456;-90
2023/08/26 12:02:33;;;;;;;9.20;6.20;;;;;;;;;;4993388;28;20405;-91
2023/08/26 12:04:59;;;;;;;6.73;5.83;;;;;;;;;;4956990;28;20440;-89
2023/08/26 12:07:27;;;;;;;8.80;6.70;;;;;;;;;;4972291;28;20429;-88
2023/08/26 12:09:53;;;;;;;10.30;6.40;;;;;;;;;;4955601;28;20527;-88
2023/08/26 12:12:19;;;;;;;7.33;6.73;;;;;;;;;;4957234;28;20471;-90
2023/08/26 12:14:46;;;;;;;6.63;6.03;;;;;;;;;;4959225;29;20456;-91
2023/08/26 12:17:15;;;;;;;7.83;6.43;;;;;;;;;;4949955;28;20467;-91
2023/08/26 12:19:41;;;;;;;7.60;6.90;;;;;;;;;;4952491;28;20562;-90
2023/08/26 12:22:08;;;;;;;6.90;6.30;;;;;;;;;;4952197;28;20441;-89
2023/08/26 12:24:37;;;;;;;8.53;6.07;;;;;;;;;;4956352;28;20422;-90
2023/08/26 12:27:10;;;;;;;8.00;6.70;;;;;;;;;;4950702;28;20462;-90
2023/08/26 12:29:36;;;;;;;8.73;7.83;;;;;;;;;;4949812;28;20826;-90
2023/08/26 12:32:02;;;;;;;8.10;6.73;;;;;;;;;;4947333;28;20453;-90
2023/08/26 12:34:28;;;;;;;8.40;7.10;;;;;;;;;;4962441;28;20425;-90
2023/08/26 12:36:54;;;;;;;8.67;7.73;;;;;;;;;;4987642;28;20442;-89
2023/08/26 12:39:20;;;;;;;6.67;6.00;;;;;;;;;;4981237;28;20425;-90
2023/08/26 12:41:49;;;;;;;8.13;6.07;;;;;;;;;;4971814;28;20617;-92
2023/08/26 12:44:15;;;;;;;7.83;6.40;;;;;;;;;;5010142;28;20520;-91
2023/08/26 12:46:42;;;;;;;10.03;6.60;;;;;;;;;;4970563;28;20421;-91
2023/08/26 12:49:08;;;;;;;7.27;5.70;;;;;;;;;;4976390;28;20460;-90
2023/08/26 12:51:34;;;;;;;10.53;6.53;;;;;;;;;;4971290;28;20405;-91
2023/08/26 12:54:00;;;;;;;9.20;5.63;;;;;;;;;;4973282;28;20444;-90
2023/08/26 12:56:26;;;;;;;5.20;4.80;;;;;;;;;;4969989;28;20480;-90
2023/08/26 12:58:52;;;;;;;7.20;5.20;;;;;;;;;;5020257;28;22728;-90
2023/08/26 13:01:18;;;;;;;5.63;4.23;;;;;;;;;;4968372;28;20453;-92
2023/08/26 13:03:44;;;;;;;6.80;4.63;;;;;;;;;;4972741;28;20552;-91
2023/08/26 13:06:10;;;;;;;8.07;4.93;;;;;;;;;;4969113;28;20469;-93
2023/08/26 13:08:36;;;;;;;8.20;4.93;;;;;;;;;;4969208;28;20443;-92
2023/08/26 13:11:02;;;;;;;7.53;5.30;;;;;;;;;;4986805;28;20433;-93
2023/08/26 13:13:28;;;;;;;10.77;5.57;;;;;;;;;;4974031;28;20429;-91
2023/08/26 13:15:55;;;;;;;5.00;3.97;;;;;;;;;;4969840;28;20759;-91
2023/08/26 13:18:21;;;;;;;6.47;4.83;;;;;;;;;;4974927;28;20452;-92
2023/08/26 13:20:47;;;;;;;12.20;4.57;;;;;;;;;;4968504;28;20468;-91
2023/08/26 13:23:13;;;;;;;5.27;4.77;;;;;;;;;;4970087;28;20491;-92
2023/08/26 13:25:40;;;;;;;6.57;4.33;;;;;;;;;;4967999;28;20508;-92
2023/08/26 13:28:06;;;;;;;8.33;4.67;;;;;;;;;;5007567;28;20445;-92
2023/08/26 13:30:33;;;;;;;9.30;5.07;;;;;;;;;;5002041;28;20446;-92
2023/08/26 13:33:08;;;;;;;6.10;3.93;;;;;;;;;;4971246;28;20449;-92
2023/08/26 13:35:34;;;;;;;4.57;3.67;;;;;;;;;;5002670;28;20425;-92
2023/08/26 13:38:00;;;;;;;4.83;4.07;;;;;;;;;;4974258;28;20453;-92
2023/08/26 13:40:26;;;;;;;5.57;4.60;;;;;;;;;;4976510;28;20457;-92
2023/08/26 13:42:54;;;;;;;10.63;6.30;;;;;;;;;;4971034;28;20401;-91
2023/08/26 13:45:21;;;;;;;4.77;3.60;;;;;;;;;;4996835;28;20435;-92
2023/08/26 13:47:47;;;;;;;7.83;3.97;;;;;;;;;;5012452;28;20413;-90
2023/08/26 13:50:13;;;;;;;5.73;4.13;;;;;;;;;;4969441;28;20460;-91
2023/08/26 13:52:40;;;;;;;4.53;3.80;;;;;;;;;;5011995;28;20504;-91
2023/08/26 13:55:07;;;;;;;5.10;3.33;;;;;;;;;;4973592;28;20469;-91
2023/08/26 13:57:34;;;;;;;4.50;3.87;;;;;;;;;;4986990;28;20456;-93
2023/08/26 14:00:00;;;;;;;5.83;3.97;;;;;;;;;;4950984;28;20521;-92
2023/08/26 14:02:28;;;;;;;6.50;4.30;;;;;;;;;;4941755;29;20452;-91
2023/08/26 14:04:54;;;;;;;5.10;3.50;;;;;;;;;;4947432;28;20443;-92
2023/08/26 14:07:23;;;;;;;4.77;3.83;;;;;;;;;;4936627;29;20552;-92
2023/08/26 14:09:50;;;;;;;5.83;5.10;;;;;;;;;;4920508;28;20492;-90
2023/08/26 14:12:24;;;;;;;5.93;3.90;;;;;;;;;;4952782;28;20436;-91
2023/08/26 14:14:50;;;;;;;5.43;4.37;;;;;;;;;;4949254;28;20434;-91
2023/08/26 14:17:18;;;;;;;5.90;4.43;;;;;;;;;;4943449;29;20430;-91
2023/08/26 14:19:44;;;;;;;4.73;4.23;;;;;;;;;;4957950;28;20532;-92
2023/08/26 14:22:12;;;;;;;11.53;5.17;;;;;;;;;;4950446;29;20439;-91
2023/08/26 14:24:41;;;;;;;5.67;3.90;;;;;;;;;;4949015;28;20535;-91
2023/08/26 14:27:08;;;;;;;5.23;4.03;;;;;;;;;;4943036;28;20469;-90
2023/08/26 14:29:35;;;;;;;6.43;3.70;;;;;;;;;;4946693;28;20482;-91
2023/08/26 14:32:07;;;;;;;4.67;3.80;;;;;;;;;;4984032;28;20445;-92
2023/08/26 14:34:33;;;;;;;8.47;3.73;;;;;;;;;;4970069;28;20462;-92
2023/08/26 14:37:00;;;;;;;7.13;4.20;;;;;;;;;;4978412;28;20912;-91